Time;durP1;ratioP1;P1;durP2;ratioP2;P2;SDS_P1;SDS_P2;PMS_P1;PMS_P2;Temp;Humidity;BMP_temperature;BMP_pressure;BME280_temperature;BME280_humidity;BME280_pressure;Samples;Min_cycle;Max_cycle;Signal;HPM_P1;HPM_P2
2022/05/11 00:00:53;;;;;;;7.20;5.57;;;19.20;92.20;;;;;;4196204;28;20222;-82
2022/05/11 00:02:55;;;;;;;9.37;5.57;;;19.30;92.00;;;;;;4192556;28;20228;-82
2022/05/11 00:04:56;;;;;;;7.90;5.67;;;19.30;91.60;;;;;;4204363;28;20207;-82
2022/05/11 00:06:58;;;;;;;8.53;5.10;;;19.30;91.60;;;;;;4190596;28;20209;-81
2022/05/11 00:09:02;;;;;;;12.23;5.57;;;19.30;91.80;;;;;;4185127;28;20226;-81
2022/05/11 00:11:05;;;;;;;8.07;5.43;;;19.30;91.60;;;;;;4186279;28;20653;-81
2022/05/11 00:13:07;;;;;;;9.00;5.00;;;19.30;91.40;;;;;;4187801;28;20266;-81
2022/05/11 00:15:10;;;;;;;9.77;5.10;;;19.20;91.40;;;;;;4190358;28;20211;-81
2022/05/11 00:17:12;;;;;;;11.10;5.23;;;19.20;91.30;;;;;;4192320;28;20255;-81
2022/05/11 00:19:16;;;;;;;6.77;4.77;;;19.20;91.40;;;;;;4186173;28;20246;-81
2022/05/11 00:21:18;;;;;;;7.40;5.40;;;19.20;90.90;;;;;;4190308;28;20222;-81
2022/05/11 00:23:20;;;;;;;13.33;5.20;;;19.60;90.80;;;;;;4190969;28;20327;-81
2022/05/11 00:25:25;;;;;;;6.03;5.13;;;19.20;91.10;;;;;;4184216;28;20217;-81
2022/05/11 00:27:27;;;;;;;8.23;4.87;;;19.20;90.60;;;;;;4180016;28;20230;-80
2022/05/11 00:29:30;;;;;;;6.33;5.17;;;19.20;90.20;;;;;;4182526;28;20214;-81
2022/05/11 00:31:32;;;;;;;7.03;5.00;;;19.20;90.10;;;;;;4192282;28;20219;-81
2022/05/11 00:33:34;;;;;;;7.13;4.90;;;19.20;89.80;;;;;;4191435;28;20713;-81
2022/05/11 00:35:36;;;;;;;7.67;5.20;;;19.20;89.30;;;;;;4197737;28;20219;-81
2022/05/11 00:37:37;;;;;;;7.00;5.20;;;19.20;89.60;;;;;;4196936;28;20205;-81
2022/05/11 00:39:39;;;;;;;6.93;5.10;;;19.20;88.70;;;;;;4198490;28;20212;-81
2022/05/11 00:41:43;;;;;;;6.23;4.77;;;19.20;88.50;;;;;;4197488;28;20270;-81
2022/05/11 00:43:54;;;;;;;6.90;4.60;;;19.10;88.70;;;;;;4198197;28;20216;-81
2022/05/11 00:46:10;;;;;;;8.43;5.03;;;19.20;88.80;;;;;;4198733;28;20258;-81
2022/05/11 00:50:41;;;;;;;11.97;5.10;;;19.10;89.10;;;;;;4133982;28;20237;-81
2022/05/11 00:52:47;;;;;;;10.10;5.20;;;19.10;89.00;;;;;;4178326;28;20230;-81
2022/05/11 00:54:55;;;;;;;8.80;4.90;;;19.10;88.90;;;;;;4190698;28;20695;-81
2022/05/11 00:57:02;;;;;;;8.17;5.20;;;19.10;89.30;;;;;;4190313;28;20229;-81
2022/05/11 00:59:11;;;;;;;12.80;5.37;;;19.10;89.60;;;;;;4195761;28;20214;-81
2022/05/11 01:01:13;;;;;;;8.27;4.77;;;19.10;89.70;;;;;;4187468;28;20231;-81
2022/05/11 01:03:18;;;;;;;5.37;4.83;;;19.10;90.00;;;;;;4187811;28;20318;-81
2022/05/11 01:05:19;;;;;;;6.47;4.63;;;19.10;90.30;;;;;;4190667;28;20714;-81
2022/05/11 01:07:21;;;;;;;6.67;5.03;;;19.00;90.30;;;;;;4191672;28;20656;-81
2022/05/11 01:09:23;;;;;;;7.27;4.63;;;19.60;90.50;;;;;;4193720;28;20734;-81
2022/05/11 01:11:25;;;;;;;8.40;5.13;;;19.00;90.40;;;;;;4190043;28;20217;-81
2022/05/11 01:13:29;;;;;;;6.27;4.43;;;19.00;90.70;;;;;;4194041;28;20249;-81
2022/05/11 01:15:33;;;;;;;6.30;4.80;;;19.00;90.70;;;;;;4186254;28;20212;-81
2022/05/11 01:17:37;;;;;;;5.70;4.47;;;18.90;90.90;;;;;;4182917;28;20267;-81
2022/05/11 01:19:41;;;;;;;6.77;5.13;;;18.90;91.10;;;;;;4190847;28;20272;-81
2022/05/11 01:21:50;;;;;;;7.70;4.90;;;18.90;91.10;;;;;;4184390;28;20209;-81
2022/05/11 01:23:58;;;;;;;6.57;4.53;;;18.90;91.30;;;;;;4186267;28;20217;-81
2022/05/11 01:26:01;;;;;;;7.33;5.27;;;18.90;91.70;;;;;;4191439;28;20587;-81
2022/05/11 01:28:05;;;;;;;8.47;5.47;;;18.90;92.00;;;;;;4192579;28;20230;-81
2022/05/11 01:30:12;;;;;;;6.00;4.97;;;18.90;92.10;;;;;;4189535;28;20282;-81
2022/05/11 01:32:14;;;;;;;7.50;5.13;;;18.90;92.20;;;;;;4186005;28;20236;-81
2022/05/11 01:34:22;;;;;;;7.20;4.83;;;18.80;92.30;;;;;;4185196;28;20312;-81
2022/05/11 01:36:27;;;;;;;8.40;5.20;;;18.80;92.60;;;;;;4191602;28;20242;-81
2022/05/11 01:38:35;;;;;;;10.00;5.30;;;19.30;92.90;;;;;;4191435;28;20676;-81
2022/05/11 01:40:37;;;;;;;8.17;5.00;;;18.80;92.80;;;;;;4196108;28;20284;-81
2022/05/11 01:42:41;;;;;;;8.37;5.43;;;18.80;93.10;;;;;;4181947;28;20249;-81
2022/05/11 01:44:43;;;;;;;7.80;5.53;;;18.70;93.20;;;;;;4188201;28;20212;-81
2022/05/11 01:46:46;;;;;;;7.60;5.27;;;18.60;93.40;;;;;;4187091;28;20279;-81
2022/05/11 01:48:48;;;;;;;9.73;5.40;;;18.70;93.50;;;;;;4185095;28;20221;-81
2022/05/11 01:50:50;;;;;;;11.53;5.20;;;18.80;93.80;;;;;;4190031;28;20221;-81
2022/05/11 01:52:52;;;;;;;8.50;5.90;;;18.70;93.90;;;;;;4184623;28;20588;-81
2022/05/11 01:54:54;;;;;;;11.13;6.07;;;18.60;94.40;;;;;;4188237;28;20260;-81
2022/05/11 01:56:55;;;;;;;8.03;5.50;;;18.70;94.60;;;;;;4190700;28;20240;-81
2022/05/11 01:58:59;;;;;;;6.83;5.27;;;18.60;94.90;;;;;;4189331;28;20215;-81
2022/05/11 02:01:01;;;;;;;13.27;5.60;;;18.60;95.00;;;;;;4187154;28;20215;-81
2022/05/11 02:03:03;;;;;;;7.43;5.53;;;18.50;95.10;;;;;;4185745;28;20268;-81
2022/05/11 02:09:57;;;;;;;8.40;5.67;;;18.40;96.10;;;;;;4184975;28;20215;-81
2022/05/11 02:11:59;;;;;;;11.00;5.73;;;18.40;96.30;;;;;;4187340;28;20215;-80
2022/05/11 02:14:02;;;;;;;10.80;5.97;;;18.40;96.20;;;;;;4182414;28;20648;-81
2022/05/11 02:16:05;;;;;;;9.40;5.87;;;18.30;96.50;;;;;;4189372;28;20297;-81
2022/05/11 02:18:07;;;;;;;7.00;5.50;;;18.30;96.60;;;;;;4182190;28;20215;-81
2022/05/11 02:20:11;;;;;;;8.70;5.30;;;18.30;96.70;;;;;;4182961;28;20953;-81
2022/05/11 02:22:14;;;;;;;7.53;5.37;;;18.30;96.90;;;;;;4186859;28;20231;-82
2022/05/11 02:24:16;;;;;;;12.93;5.33;;;18.30;97.00;;;;;;4185274;28;20305;-81
2022/05/11 02:26:19;;;;;;;8.00;5.70;;;18.30;96.90;;;;;;4188447;28;20214;-81
2022/05/11 02:28:23;;;;;;;7.27;5.30;;;18.30;96.90;;;;;;4186499;28;20216;-81
2022/05/11 02:30:28;;;;;;;9.03;5.47;;;18.30;97.00;;;;;;4189556;28;20226;-81
2022/05/11 02:32:30;;;;;;;8.40;5.67;;;18.30;97.10;;;;;;4190513;28;20823;-81
2022/05/11 02:36:51;;;;;;;8.13;5.30;;;18.20;97.10;;;;;;4183855;28;20234;-81
2022/05/11 02:38:53;;;;;;;8.27;5.97;;;18.30;97.10;;;;;;4186743;28;20220;-81
2022/05/11 02:40:55;;;;;;;7.03;5.60;;;18.20;97.60;;;;;;4185491;28;20219;-81
2022/05/11 02:42:58;;;;;;;8.87;5.77;;;18.20;97.50;;;;;;4193516;28;20250;-81
2022/05/11 02:44:59;;;;;;;6.90;5.37;;;18.20;97.70;;;;;;4186334;28;20294;-81
2022/05/11 02:47:03;;;;;;;11.87;5.57;;;18.10;97.60;;;;;;4189796;28;20349;-81
2022/05/11 02:49:05;;;;;;;6.83;4.90;;;18.10;97.80;;;;;;4189104;28;20215;-81
2022/05/11 02:51:07;;;;;;;7.60;5.23;;;18.10;97.70;;;;;;4190490;28;20245;-81
2022/05/11 02:53:11;;;;;;;6.23;5.30;;;18.10;97.80;;;;;;4190897;28;20767;-81
2022/05/11 02:55:12;;;;;;;6.97;5.70;;;18.00;98.20;;;;;;4188989;28;20226;-81
2022/05/11 02:57:15;;;;;;;8.03;5.10;;;18.00;98.20;;;;;;4189938;28;20229;-81
2022/05/11 02:59:17;;;;;;;8.23;5.27;;;18.00;98.40;;;;;;4189867;28;20246;-81
2022/05/11 03:01:18;;;;;;;6.63;5.53;;;18.00;98.80;;;;;;4190103;28;20220;-81
2022/05/11 03:03:22;;;;;;;6.13;5.50;;;17.90;99.40;;;;;;4187772;28;20261;-81
2022/05/11 03:05:24;;;;;;;7.53;5.17;;;17.90;99.80;;;;;;4184845;28;20821;-81
2022/05/11 03:07:26;;;;;;;7.30;5.50;;;17.90;99.90;;;;;;4188406;28;20650;-81
2022/05/11 03:09:28;;;;;;;7.70;5.30;;;17.90;99.90;;;;;;4185165;28;20260;-81
2022/05/11 03:11:29;;;;;;;7.20;5.23;;;17.90;99.90;;;;;;4179420;28;20214;-81
2022/05/11 03:13:32;;;;;;;9.23;5.83;;;18.40;99.90;;;;;;4187229;28;20755;-81
2022/05/11 03:15:34;;;;;;;8.63;5.70;;;17.80;99.90;;;;;;4186351;28;20738;-81
2022/05/11 03:17:36;;;;;;;7.87;5.37;;;17.80;99.90;;;;;;4187594;28;20227;-81
2022/05/11 03:19:39;;;;;;;8.20;5.50;;;17.80;99.90;;;;;;4188468;28;20574;-81
2022/05/11 03:21:41;;;;;;;6.67;5.30;;;17.80;99.90;;;;;;4188419;28;20652;-81
2022/05/11 03:23:43;;;;;;;5.67;4.80;;;17.70;99.90;;;;;;4186155;28;20648;-81
2022/05/11 03:25:44;;;;;;;8.07;5.03;;;17.70;99.90;;;;;;4188842;28;20214;-81
2022/05/11 03:27:46;;;;;;;9.37;5.30;;;17.70;99.90;;;;;;4184008;28;20645;-81
2022/05/11 03:29:49;;;;;;;7.03;5.33;;;17.70;99.90;;;;;;4187335;28;20620;-80
2022/05/11 03:36:28;;;;;;;7.13;5.60;;;17.70;99.90;;;;;;4185646;28;20220;-81
2022/05/11 03:38:30;;;;;;;7.27;5.50;;;17.70;99.90;;;;;;4181932;28;20515;-81
2022/05/11 03:40:37;;;;;;;8.03;5.90;;;18.30;99.90;;;;;;4186045;28;20214;-81
2022/05/11 03:42:41;;;;;;;7.27;5.63;;;17.80;99.90;;;;;;4186807;28;20238;-81
2022/05/11 03:44:42;;;;;;;6.73;5.03;;;17.60;99.90;;;;;;4187491;28;20821;-81
2022/05/11 03:46:44;;;;;;;6.70;5.17;;;17.60;99.90;;;;;;4188494;28;20664;-81
2022/05/11 03:48:46;;;;;;;6.47;5.30;;;17.60;99.90;;;;;;4186342;28;20210;-81
2022/05/11 03:50:48;;;;;;;8.23;6.00;;;17.70;99.90;;;;;;4188632;28;20237;-81
2022/05/11 03:52:52;;;;;;;7.50;5.70;;;17.60;99.90;;;;;;4190363;28;20239;-81
2022/05/11 03:54:54;;;;;;;6.47;5.67;;;17.60;99.90;;;;;;4189504;28;20667;-81
2022/05/11 03:56:55;;;;;;;12.80;6.33;;;17.60;99.90;;;;;;4187550;28;20234;-81
2022/05/11 03:58:57;;;;;;;8.43;6.03;;;17.60;99.90;;;;;;4181540;28;20283;-81
2022/05/11 04:00:59;;;;;;;9.67;6.13;;;17.60;99.90;;;;;;4186706;28;20214;-81
2022/05/11 04:03:01;;;;;;;8.13;6.03;;;17.50;99.90;;;;;;4195109;28;20241;-81
2022/05/11 04:05:02;;;;;;;9.17;6.70;;;17.60;99.90;;;;;;4194175;28;20210;-81
2022/05/11 04:07:05;;;;;;;9.33;6.17;;;17.60;99.90;;;;;;4190351;28;20713;-81
2022/05/11 04:09:08;;;;;;;7.10;6.13;;;17.50;99.90;;;;;;4189160;28;20291;-81
2022/05/11 04:11:11;;;;;;;9.67;6.37;;;17.60;99.90;;;;;;4193949;28;20628;-81
2022/05/11 04:13:13;;;;;;;11.17;6.63;;;17.50;99.90;;;;;;4194738;28;20287;-81
2022/05/11 04:15:15;;;;;;;7.30;5.90;;;17.60;99.90;;;;;;4196882;28;20460;-81
2022/05/11 04:17:17;;;;;;;10.80;6.40;;;17.60;99.90;;;;;;4194952;28;20710;-81
2022/05/11 04:19:19;;;;;;;8.20;6.80;;;17.50;99.90;;;;;;4193335;28;20623;-81
2022/05/11 04:21:21;;;;;;;9.40;6.47;;;17.50;99.90;;;;;;4191825;28;20210;-82
2022/05/11 04:23:23;;;;;;;7.60;5.73;;;17.60;99.90;;;;;;4193665;28;20225;-82
2022/05/11 04:25:26;;;;;;;6.40;5.47;;;17.50;99.90;;;;;;4192737;28;20633;-81
2022/05/11 04:27:28;;;;;;;7.13;5.90;;;17.50;99.90;;;;;;4191864;28;20240;-81
2022/05/11 04:29:30;;;;;;;8.83;5.83;;;17.60;99.90;;;;;;4200267;28;20209;-81
2022/05/11 04:31:32;;;;;;;7.73;5.40;;;17.60;99.90;;;;;;4198962;28;20210;-81
2022/05/11 04:33:35;;;;;;;8.37;6.13;;;17.60;99.90;;;;;;4196680;28;20272;-81
2022/05/11 04:35:37;;;;;;;10.33;5.67;;;17.70;99.90;;;;;;4196287;28;20437;-84
2022/05/11 04:37:38;;;;;;;7.97;5.97;;;17.70;99.90;;;;;;4202963;28;20290;-86
2022/05/11 04:39:40;;;;;;;7.83;6.07;;;17.70;99.90;;;;;;4194883;28;20217;-80
2022/05/11 04:41:43;;;;;;;11.20;7.10;;;17.60;99.90;;;;;;4188229;28;20210;-81
2022/05/11 04:43:45;;;;;;;8.37;6.13;;;17.60;99.90;;;;;;4200145;28;20203;-81
2022/05/11 04:45:48;;;;;;;10.00;5.50;;;17.70;99.90;;;;;;4203011;28;20214;-81
2022/05/11 04:47:49;;;;;;;8.07;6.27;;;17.60;99.90;;;;;;4194062;28;20214;-83
2022/05/11 04:49:54;;;;;;;8.27;6.47;;;17.40;99.90;;;;;;4191389;28;20285;-80
2022/05/11 04:52:00;;;;;;;9.27;6.70;;;17.60;99.90;;;;;;4194037;28;20219;-80
2022/05/11 04:54:04;;;;;;;7.53;5.57;;;17.60;99.90;;;;;;4191536;28;20856;-81
2022/05/11 04:56:06;;;;;;;13.63;8.83;;;17.60;99.90;;;;;;4197744;28;20752;-80
2022/05/11 04:58:09;;;;;;;14.10;8.60;;;17.60;99.90;;;;;;4195249;28;20625;-84
2022/05/11 05:00:12;;;;;;;13.37;7.53;;;17.70;99.90;;;;;;4196272;28;20240;-81
2022/05/11 05:02:17;;;;;;;11.27;8.03;;;17.70;99.90;;;;;;4197667;28;20269;-81
2022/05/11 05:04:20;;;;;;;12.23;8.20;;;17.80;99.90;;;;;;4195567;28;20214;-83
2022/05/11 05:06:22;;;;;;;9.80;6.37;;;17.80;99.90;;;;;;4200166;28;20207;-82
2022/05/11 05:08:23;;;;;;;8.87;6.40;;;17.80;99.90;;;;;;4190307;28;20641;-83
2022/05/11 05:10:25;;;;;;;8.77;7.23;;;17.80;99.90;;;;;;4203244;28;20219;-85
2022/05/11 05:12:27;;;;;;;9.13;6.30;;;17.90;99.90;;;;;;4196099;28;20569;-84
2022/05/11 05:14:30;;;;;;;10.90;6.90;;;17.90;99.90;;;;;;4199511;28;20268;-84
2022/05/11 05:16:32;;;;;;;8.30;6.17;;;18.00;99.90;;;;;;4196565;28;20560;-84
2022/05/11 05:18:35;;;;;;;9.67;6.87;;;18.10;99.90;;;;;;4193788;28;20238;-84
2022/05/11 05:20:38;;;;;;;11.03;8.47;;;18.10;99.90;;;;;;4189288;28;20243;-85
2022/05/11 05:22:39;;;;;;;11.60;8.47;;;18.10;99.90;;;;;;4190999;28;20625;-85
2022/05/11 05:24:42;;;;;;;9.77;7.43;;;18.00;99.90;;;;;;4189449;28;20211;-86
2022/05/11 05:26:43;;;;;;;10.00;6.60;;;18.20;99.90;;;;;;4191281;28;20227;-84
2022/05/11 05:31:11;;;;;;;11.00;6.83;;;18.30;99.90;;;;;;4188781;28;20210;-85
2022/05/11 05:33:13;;;;;;;12.07;7.37;;;18.30;99.90;;;;;;4187013;28;20265;-83
2022/05/11 05:35:17;;;;;;;10.30;6.83;;;18.30;99.90;;;;;;4191678;28;20217;-84
2022/05/11 05:37:20;;;;;;;10.70;7.13;;;18.20;99.90;;;;;;4191842;28;20223;-84
2022/05/11 05:39:22;;;;;;;9.60;7.10;;;18.40;99.90;;;;;;4187718;28;20219;-84
2022/05/11 05:41:23;;;;;;;11.73;7.20;;;18.30;99.90;;;;;;4191099;28;20642;-83
2022/05/11 05:43:25;;;;;;;11.00;7.07;;;18.80;99.90;;;;;;4186584;28;20242;-83
2022/05/11 05:45:27;;;;;;;14.23;7.20;;;18.40;99.90;;;;;;4189308;28;20268;-82
2022/05/11 05:47:30;;;;;;;9.97;7.10;;;18.40;99.90;;;;;;4191992;28;20695;-83
2022/05/11 05:49:32;;;;;;;11.27;7.07;;;18.40;99.90;;;;;;4187245;28;20606;-85
2022/05/11 05:51:37;;;;;;;10.13;7.27;;;18.30;99.90;;;;;;4187930;28;20213;-83
2022/05/11 05:53:40;;;;;;;10.90;7.07;;;18.50;99.90;;;;;;4188214;28;20232;-79
2022/05/11 05:55:42;;;;;;;15.60;7.57;;;18.50;99.90;;;;;;4192954;28;20278;-83
2022/05/11 05:57:43;;;;;;;13.57;7.57;;;18.60;99.90;;;;;;4194227;28;20239;-83
2022/05/11 05:59:46;;;;;;;9.20;6.87;;;18.60;99.90;;;;;;4192080;28;20212;-83
2022/05/11 06:01:47;;;;;;;10.10;6.63;;;18.70;99.90;;;;;;4196235;28;20285;-83
2022/05/11 06:03:51;;;;;;;16.67;7.30;;;18.70;99.90;;;;;;4184513;28;20213;-83
2022/05/11 06:05:54;;;;;;;10.43;6.90;;;18.70;99.90;;;;;;4193021;28;20453;-83
2022/05/11 06:07:56;;;;;;;10.03;7.07;;;18.80;99.90;;;;;;4185218;28;20314;-84
2022/05/11 06:09:58;;;;;;;11.03;6.70;;;18.80;99.90;;;;;;4187815;28;20247;-84
2022/05/11 06:12:00;;;;;;;10.67;6.23;;;18.80;99.90;;;;;;4188119;28;20226;-84
2022/05/11 06:14:02;;;;;;;11.27;6.17;;;18.90;99.90;;;;;;4191667;28;20970;-84
2022/05/11 06:16:10;;;;;;;9.73;6.43;;;19.40;99.90;;;;;;4185797;28;20222;-84
2022/05/11 06:18:13;;;;;;;9.53;6.50;;;18.90;99.90;;;;;;4192630;28;20660;-84
2022/05/11 06:20:16;;;;;;;8.00;5.80;;;18.90;99.90;;;;;;4191484;28;20223;-83
2022/05/11 06:22:18;;;;;;;12.13;6.40;;;18.90;99.90;;;;;;4195792;28;20244;-84
2022/05/11 06:24:20;;;;;;;11.97;6.40;;;18.90;99.90;;;;;;4196935;28;20530;-83
2022/05/11 06:26:22;;;;;;;11.73;7.20;;;19.10;99.90;;;;;;4195052;28;20678;-84
2022/05/11 06:28:23;;;;;;;18.13;7.27;;;19.00;99.90;;;;;;4195336;28;20216;-83
2022/05/11 06:30:25;;;;;;;10.20;6.20;;;19.00;99.90;;;;;;4195040;28;20613;-83
2022/05/11 06:32:28;;;;;;;10.63;5.70;;;18.90;99.90;;;;;;4190063;28;20282;-83
2022/05/11 06:34:31;;;;;;;9.10;6.17;;;19.00;99.90;;;;;;4199416;28;20283;-83
2022/05/11 06:36:34;;;;;;;8.67;5.93;;;19.00;99.90;;;;;;4194924;28;20250;-83
2022/05/11 06:38:36;;;;;;;11.97;6.40;;;19.00;99.90;;;;;;4194597;28;20234;-84
2022/05/11 06:40:38;;;;;;;11.40;5.90;;;19.10;99.90;;;;;;4204537;28;20222;-84
2022/05/11 06:42:41;;;;;;;11.70;5.67;;;19.10;99.90;;;;;;4199226;28;20302;-83
2022/05/11 06:44:43;;;;;;;10.07;5.50;;;19.20;99.90;;;;;;4200424;28;20244;-83
2022/05/11 06:46:45;;;;;;;14.60;6.27;;;19.20;99.90;;;;;;4193800;28;20255;-83
2022/05/11 06:48:48;;;;;;;10.37;5.83;;;19.20;99.90;;;;;;4198411;28;20673;-83
2022/05/11 06:50:50;;;;;;;11.87;6.17;;;19.30;99.90;;;;;;4192369;28;20254;-83
2022/05/11 06:52:53;;;;;;;11.30;5.80;;;19.50;99.90;;;;;;4204144;28;20233;-82
2022/05/11 06:59:33;;;;;;;10.73;5.23;;;19.50;99.90;;;;;;4191858;28;20238;-83
2022/05/11 07:01:35;;;;;;;14.50;5.20;;;19.50;99.90;;;;;;4193057;28;20197;-83
2022/05/11 07:03:37;;;;;;;12.03;5.53;;;19.40;99.90;;;;;;4199663;28;20687;-83
2022/05/11 07:05:39;;;;;;;8.90;5.80;;;19.50;99.90;;;;;;4206159;28;20235;-83
2022/05/11 07:07:41;;;;;;;10.40;4.90;;;19.70;99.90;;;;;;4186148;28;20221;-83
2022/05/11 07:09:44;;;;;;;11.53;5.37;;;19.70;99.90;;;;;;4188552;28;20200;-82
2022/05/11 07:14:08;;;;;;;12.47;5.27;;;19.70;99.90;;;;;;4193996;28;20215;-83
2022/05/11 07:16:10;;;;;;;15.60;5.37;;;19.80;99.90;;;;;;4189660;28;20221;-82
2022/05/11 07:18:12;;;;;;;13.90;5.77;;;19.90;99.90;;;;;;4184455;28;20260;-82
2022/05/11 07:20:16;;;;;;;14.40;6.70;;;20.00;99.90;;;;;;4185585;28;20715;-82
2022/05/11 07:22:18;;;;;;;10.83;5.53;;;20.00;99.90;;;;;;4181912;28;20246;-82
2022/05/11 07:24:20;;;;;;;11.40;5.67;;;20.30;99.70;;;;;;4196499;28;20214;-82
2022/05/11 07:26:24;;;;;;;9.13;5.10;;;20.10;99.10;;;;;;4190556;28;20236;-83
2022/05/11 07:28:26;;;;;;;6.67;4.80;;;20.20;98.10;;;;;;4187763;28;20215;-82
2022/05/11 07:30:32;;;;;;;10.63;5.00;;;20.30;98.40;;;;;;4181221;28;20217;-83
2022/05/11 07:32:34;;;;;;;8.80;5.10;;;20.30;98.90;;;;;;4184096;28;20244;-83
2022/05/11 07:34:36;;;;;;;10.17;5.00;;;20.40;99.00;;;;;;4187202;28;20305;-83
2022/05/11 07:36:38;;;;;;;8.83;4.90;;;20.60;97.20;;;;;;4188669;28;21015;-83
2022/05/11 07:38:40;;;;;;;12.97;5.10;;;20.50;96.90;;;;;;4183358;28;20238;-84
2022/05/11 07:40:43;;;;;;;8.80;4.70;;;20.60;96.00;;;;;;4184985;28;20232;-83
2022/05/11 07:42:46;;;;;;;8.37;4.43;;;20.70;94.70;;;;;;4192362;28;20245;-83
2022/05/11 07:44:48;;;;;;;11.10;4.70;;;20.80;95.20;;;;;;4187527;28;20261;-83
2022/05/11 07:46:50;;;;;;;9.73;4.67;;;20.80;95.80;;;;;;4184237;28;20209;-83
2022/05/11 07:48:51;;;;;;;8.80;4.90;;;20.80;95.10;;;;;;4187384;28;20282;-83
2022/05/11 07:50:53;;;;;;;6.43;4.13;;;20.90;94.20;;;;;;4182321;28;20221;-83
2022/05/11 07:52:55;;;;;;;9.27;4.40;;;20.90;94.10;;;;;;4185802;28;20234;-83
2022/05/11 07:54:57;;;;;;;6.13;4.37;;;21.00;93.30;;;;;;4186355;28;20690;-83
2022/05/11 08:01:39;;;;;;;9.97;4.73;;;21.30;90.30;;;;;;4190859;28;20305;-84
2022/05/11 08:03:41;;;;;;;7.77;4.33;;;21.30;88.70;;;;;;4190603;28;20253;-83
2022/05/11 08:05:42;;;;;;;5.37;4.27;;;21.40;87.20;;;;;;4194781;28;20225;-84
2022/05/11 08:07:46;;;;;;;5.70;4.20;;;21.50;86.60;;;;;;4189568;28;20271;-83
2022/05/11 08:09:48;;;;;;;5.03;3.97;;;21.80;86.60;;;;;;4193763;28;20245;-83
2022/05/11 08:11:50;;;;;;;5.47;3.70;;;21.70;84.10;;;;;;4192275;28;20213;-84
2022/05/11 08:13:51;;;;;;;7.97;4.00;;;21.70;80.20;;;;;;4185843;28;20634;-83
2022/05/11 08:15:55;;;;;;;4.53;3.83;;;21.80;79.50;;;;;;4186274;28;20221;-83
2022/05/11 08:17:56;;;;;;;6.23;3.50;;;21.90;76.90;;;;;;4192269;28;20211;-84
2022/05/11 08:20:00;;;;;;;4.87;3.57;;;21.90;76.00;;;;;;4189316;28;20230;-83
2022/05/11 08:22:01;;;;;;;7.70;4.00;;;22.00;74.70;;;;;;4195710;28;20333;-83
2022/05/11 08:24:04;;;;;;;7.90;3.50;;;22.10;72.40;;;;;;4179661;28;20265;-83
2022/05/11 08:26:06;;;;;;;5.80;3.40;;;22.10;70.80;;;;;;4181926;28;20219;-83
2022/05/11 08:28:12;;;;;;;6.97;3.77;;;22.20;71.50;;;;;;4186778;28;20244;-83
2022/05/11 08:34:56;;;;;;;5.70;3.63;;;22.60;61.70;;;;;;4197991;28;20262;-83
2022/05/11 08:36:58;;;;;;;6.07;3.40;;;22.70;61.90;;;;;;4193284;28;20279;-83
2022/05/11 08:39:01;;;;;;;6.57;3.40;;;22.70;59.00;;;;;;4186414;28;20265;-83
2022/05/11 08:41:06;;;;;;;7.97;3.30;;;22.80;57.60;;;;;;4194760;28;20315;-84
2022/05/11 08:43:12;;;;;;;5.97;3.73;;;22.80;55.50;;;;;;4178204;28;20321;-84
2022/05/11 08:45:14;;;;;;;8.03;3.80;;;22.90;55.00;;;;;;4185014;28;20670;-84
2022/05/11 08:47:31;;;;;;;5.63;3.17;;;23.10;55.30;;;;;;4182375;28;20355;-84
2022/05/11 08:49:47;;;;;;;4.43;2.83;;;22.90;56.30;;;;;;4177943;28;20323;-83
2022/05/11 08:51:56;;;;;;;5.40;3.10;;;23.10;55.50;;;;;;4177836;28;20313;-83
2022/05/11 08:54:10;;;;;;;4.43;3.20;;;23.10;55.90;;;;;;4184657;28;20252;-84
2022/05/11 08:56:16;;;;;;;6.00;3.00;;;23.20;56.60;;;;;;4192025;28;20213;-84
2022/05/11 08:58:23;;;;;;;6.20;3.40;;;23.30;56.50;;;;;;4189419;28;20278;-84
2022/05/11 09:00:25;;;;;;;9.37;3.37;;;23.40;55.50;;;;;;4184014;28;20221;-83
2022/05/11 09:02:29;;;;;;;5.27;3.03;;;23.50;55.50;;;;;;4186225;28;20229;-83
2022/05/11 09:04:40;;;;;;;6.73;3.23;;;23.60;54.00;;;;;;4189051;28;20658;-83
2022/05/11 09:06:44;;;;;;;5.20;3.30;;;23.70;52.00;;;;;;4187118;28;20304;-84
2022/05/11 09:08:47;;;;;;;5.97;3.10;;;23.70;51.40;;;;;;4189187;28;20632;-83
2022/05/11 09:10:48;;;;;;;4.40;3.03;;;23.80;50.70;;;;;;4186934;28;20720;-84
2022/05/11 09:12:55;;;;;;;8.73;3.23;;;23.90;49.80;;;;;;4192511;28;20246;-84
2022/05/11 09:14:59;;;;;;;7.33;2.97;;;24.00;49.20;;;;;;4196897;28;20686;-84
2022/05/11 09:17:01;;;;;;;8.13;3.40;;;24.10;48.10;;;;;;4186450;28;20773;-84
2022/05/11 09:19:11;;;;;;;8.03;3.07;;;24.10;47.70;;;;;;4187586;28;20241;-84
2022/05/11 09:21:24;;;;;;;3.30;2.83;;;24.20;48.00;;;;;;4187122;28;20220;-84
2022/05/11 09:23:31;;;;;;;13.67;3.70;;;24.20;47.70;;;;;;4192533;28;20256;-84
2022/05/11 09:25:37;;;;;;;6.00;3.20;;;24.40;47.30;;;;;;4194022;28;20299;-83
2022/05/11 09:27:39;;;;;;;5.07;3.10;;;24.50;46.70;;;;;;4194115;28;20268;-84
2022/05/11 09:29:44;;;;;;;7.67;2.70;;;24.50;47.00;;;;;;4190892;28;20222;-84
2022/05/11 09:31:47;;;;;;;9.63;3.63;;;24.50;47.50;;;;;;4189753;28;20269;-83
2022/05/11 09:33:58;;;;;;;7.03;3.07;;;24.70;46.90;;;;;;4187158;28;20214;-84
2022/05/11 09:36:02;;;;;;;4.53;3.00;;;24.70;47.00;;;;;;4184306;28;20264;-84
2022/05/11 09:38:10;;;;;;;5.87;2.80;;;24.70;46.60;;;;;;4188205;28;20227;-83
2022/05/11 09:40:16;;;;;;;7.03;2.83;;;24.90;46.50;;;;;;4195392;28;20225;-83
2022/05/11 09:42:26;;;;;;;5.13;3.00;;;25.00;46.20;;;;;;4192557;28;20299;-83
2022/05/11 09:44:39;;;;;;;5.33;2.90;;;25.20;44.60;;;;;;4190575;28;20447;-83
2022/05/11 09:46:41;;;;;;;5.70;3.10;;;25.40;44.30;;;;;;4186893;28;20210;-83
2022/05/11 09:48:57;;;;;;;7.57;3.20;;;25.50;43.60;;;;;;4189032;28;20253;-83
2022/05/11 09:51:19;;;;;;;8.43;3.00;;;25.80;43.10;;;;;;4187903;28;20261;-84
2022/05/11 09:53:31;;;;;;;6.20;2.93;;;25.80;42.80;;;;;;4192488;28;20579;-84
2022/05/11 09:55:32;;;;;;;4.73;2.83;;;25.60;42.50;;;;;;4188561;28;20220;-82
2022/05/11 09:57:34;;;;;;;6.73;3.03;;;25.60;43.00;;;;;;4187974;28;20214;-84
2022/05/11 09:59:38;;;;;;;8.00;3.43;;;25.60;44.10;;;;;;4182620;28;20265;-83
2022/05/11 10:01:40;;;;;;;5.17;3.07;;;25.60;44.10;;;;;;4187590;28;20225;-83
2022/05/11 10:03:51;;;;;;;5.37;3.10;;;25.70;43.70;;;;;;4186222;28;20213;-83
2022/05/11 10:05:53;;;;;;;3.97;3.17;;;25.60;43.80;;;;;;4184131;28;20225;-83
2022/05/11 10:08:02;;;;;;;5.63;3.50;;;25.60;43.80;;;;;;4183464;28;20337;-84
2022/05/11 10:10:14;;;;;;;6.80;3.07;;;25.60;44.20;;;;;;4185108;28;20855;-83
2022/05/11 10:12:19;;;;;;;3.27;2.87;;;25.90;44.70;;;;;;4192789;28;20233;-84
2022/05/11 10:21:53;;;;;;;6.07;2.90;;;25.90;42.00;;;;;;4190382;28;20604;-83
2022/05/11 10:24:07;;;;;;;13.80;3.53;;;25.90;41.50;;;;;;4194435;28;20218;-84
2022/05/11 10:26:19;;;;;;;7.97;2.87;;;26.00;41.50;;;;;;4184653;28;20640;-83
2022/05/11 10:28:30;;;;;;;4.33;2.53;;;26.00;41.40;;;;;;4191936;28;20223;-83
2022/05/11 10:30:38;;;;;;;7.10;2.80;;;26.00;41.00;;;;;;4183510;28;20213;-83
2022/05/11 10:32:51;;;;;;;9.47;3.00;;;26.10;41.00;;;;;;4193047;28;20295;-83
2022/05/11 10:35:02;;;;;;;7.70;2.53;;;26.20;40.70;;;;;;4191659;28;20559;-84
2022/05/11 10:37:09;;;;;;;8.10;2.20;;;26.40;40.80;;;;;;4188872;28;20233;-83
2022/05/11 10:39:27;;;;;;;8.60;2.63;;;26.40;41.20;;;;;;4186156;28;20264;-84
2022/05/11 10:41:37;;;;;;;6.90;2.83;;;26.50;39.60;;;;;;4190118;28;20215;-84
2022/05/11 11:07:36;;;;;;;11.03;2.87;;;27.90;35.90;;;;;;4208058;28;20666;-82
2022/05/11 11:09:56;;;;;;;8.00;2.37;;;28.00;35.70;;;;;;4213402;28;20234;-82
2022/05/11 11:12:07;;;;;;;4.80;2.60;;;28.00;35.10;;;;;;4207753;28;20857;-82
2022/05/11 11:14:11;;;;;;;5.27;2.70;;;28.10;35.30;;;;;;4222833;28;20232;-81
2022/05/11 11:16:14;;;;;;;7.27;2.40;;;28.20;35.40;;;;;;4224511;28;20589;-83
2022/05/11 11:18:21;;;;;;;6.63;2.50;;;28.20;35.40;;;;;;4214568;28;20478;-82
2022/05/11 11:20:25;;;;;;;3.60;2.23;;;28.30;35.20;;;;;;4226589;28;20586;-82
2022/05/11 11:22:48;;;;;;;3.50;2.20;;;28.40;35.30;;;;;;4218486;28;20888;-82
2022/05/11 11:25:22;;;;;;;5.70;2.60;;;28.50;35.10;;;;;;4221300;28;20221;-83
2022/05/11 11:28:08;;;;;;;5.23;2.17;;;28.80;34.70;;;;;;4213218;28;20209;-82
2022/05/11 11:30:21;;;;;;;3.63;2.50;;;29.00;33.90;;;;;;4215674;28;20217;-83
2022/05/11 11:32:24;;;;;;;6.43;2.60;;;29.20;33.10;;;;;;4218608;28;20231;-82
2022/05/11 11:34:31;;;;;;;5.47;2.27;;;29.30;33.20;;;;;;4218190;28;20301;-82
2022/05/11 11:36:36;;;;;;;7.85;2.45;;;29.50;33.30;;;;;;4221232;28;20224;-82
2022/05/11 11:38:47;;;;;;;4.35;2.25;;;29.70;33.20;;;;;;4221807;28;20229;-82
2022/05/11 11:41:11;;;;;;;7.13;2.50;;;30.00;32.20;;;;;;4213890;28;20756;-82
2022/05/11 11:43:51;;;;;;;5.73;2.53;;;30.30;31.80;;;;;;4224308;28;20242;-83
2022/05/11 11:46:04;;;;;;;5.45;2.38;;;30.70;31.40;;;;;;4216085;28;20251;-82
2022/05/11 11:48:20;;;;;;;12.25;2.88;;;31.30;31.20;;;;;;4225791;28;20311;-82